Time;durP1;ratioP1;P1;durP2;ratioP2;P2;SDS_P1;SDS_P2;PMS_P1;PMS_P2;Temp;Humidity;BMP_temperature;BMP_pressure;BME280_temperature;BME280_humidity;BME280_pressure;Samples;Min_cycle;Max_cycle;Signal;HPM_P1;HPM_P2
2021/12/11 00:04:03;;;;;;;26.08;13.88;;;;;;;3.55;62.76;98779.31;7632357;32;39994;-79
2021/12/11 00:08:24;;;;;;;28.83;15.77;;;;;;;3.52;62.99;98790.63;7632344;32;36807;-79
2021/12/11 00:12:45;;;;;;;28.33;16.15;;;;;;;3.15;63.82;98802.75;7632343;32;37009;-79
2021/12/11 00:17:02;;;;;;;25.75;14.43;;;;;;;3.03;64.69;98806.63;7632242;32;40108;-80
2021/12/11 00:21:19;;;;;;;25.17;14.43;;;;;;;3.49;63.13;98808.06;7632185;32;39693;-79
2021/12/11 00:25:45;;;;;;;24.75;14.63;;;;;;;3.46;63.29;98808.56;7632088;32;38003;-79
2021/12/11 00:30:02;;;;;;;31.15;15.77;;;;;;;3.48;63.25;98816.41;7632062;32;37261;-79
2021/12/11 00:34:20;;;;;;;24.63;14.18;;;;;;;3.28;63.83;98828.53;7631188;32;39229;-79
2021/12/11 00:38:37;;;;;;;27.13;15.23;;;;;;;3.50;63.17;98838.53;7632003;32;39720;-79
2021/12/11 00:42:57;;;;;;;25.73;14.27;;;;;;;3.25;64.23;98834.41;7631760;32;37933;-79
2021/12/11 00:47:16;;;;;;;25.98;15.68;;;;;;;3.64;63.02;98842.50;7631856;32;37284;-79
2021/12/11 00:51:33;;;;;;;25.27;14.63;;;;;;;3.18;64.33;98863.41;7631885;32;40049;-79
2021/12/11 00:55:57;;;;;;;25.85;14.15;;;;;;;3.06;65.10;98874.25;7631644;32;40795;-79
2021/12/11 01:00:19;;;;;;;29.50;15.20;;;;;;;3.05;64.86;98882.59;7631594;32;38590;-79
2021/12/11 01:04:41;;;;;;;29.25;16.20;;;;;;;3.26;64.44;98889.94;7631541;32;37514;-79
2021/12/11 01:09:11;;;;;;;30.95;15.93;;;;;;;3.01;65.08;98893.84;7630368;32;40106;-79
2021/12/11 01:13:33;;;;;;;31.70;16.37;;;;;;;3.49;63.51;98898.91;7630370;32;40899;-79
2021/12/11 01:22:43;;;;;;;27.60;16.12;;;;;;;3.49;63.62;98923.97;7631257;32;37238;-79
2021/12/11 01:27:03;;;;;;;31.62;15.85;;;;;;;3.69;63.23;98928.84;7631030;32;37537;-79
2021/12/11 01:31:20;;;;;;;28.58;16.23;;;;;;;3.49;64.20;98936.63;7631178;32;39892;-79
2021/12/11 01:35:37;;;;;;;32.28;15.73;;;;;;;3.55;63.54;98949.09;7629580;32;38654;-79
2021/12/11 01:39:54;;;;;;;30.58;16.77;;;;;;;3.64;63.62;98952.19;7630794;32;37335;-79
2021/12/11 01:44:16;;;;;;;30.65;16.27;;;;;;;3.52;64.19;98941.53;7630970;32;40000;-79
2021/12/11 01:48:45;;;;;;;32.60;17.40;;;;;;;3.32;64.91;98937.44;7634039;32;39753;-79
2021/12/11 01:53:06;;;;;;;30.52;16.95;;;;;;;3.57;64.37;98936.22;7633867;32;37888;-79
2021/12/11 01:57:25;;;;;;;29.87;16.80;;;;;;;3.82;63.42;98935.75;7633862;32;38455;-78
2021/12/11 02:02:02;;;;;;;32.58;17.60;;;;;;;3.70;63.76;98938.53;7633834;32;39340;-79
2021/12/11 02:06:18;;;;;;;35.08;17.92;;;;;;;3.74;63.59;98930.78;7634060;32;39915;-79
2021/12/11 02:10:38;;;;;;;34.28;16.95;;;;;;;3.56;64.29;98929.19;7633544;32;37682;-79
2021/12/11 02:14:56;;;;;;;28.95;16.02;;;;;;;3.42;64.95;98933.28;7633699;32;38053;-79
2021/12/11 02:19:31;;;;;;;29.23;16.85;;;;;;;3.54;64.53;98940.19;7633520;32;39273;-79
2021/12/11 02:24:16;;;;;;;29.58;16.00;;;;;;;3.65;64.33;98956.53;7633623;32;39871;-79
2021/12/11 02:28:39;;;;;;;34.47;18.02;;;;;;;3.83;63.72;98966.22;7632474;32;37909;-79
2021/12/11 02:33:06;;;;;;;34.00;18.05;;;;;;;3.86;63.46;98963.03;7633448;32;37236;-79
2021/12/11 02:37:47;;;;;;;33.60;18.35;;;;;;;4.13;62.45;98961.25;7633381;32;39282;-79
2021/12/11 02:42:20;;;;;;;33.95;18.27;;;;;;;3.78;63.77;98944.56;7633329;32;39996;-79
2021/12/11 02:46:43;;;;;;;32.17;16.77;;;;;;;3.67;64.31;98943.63;7632231;32;37733;-79
2021/12/11 02:51:04;;;;;;;36.63;19.10;;;;;;;3.52;64.70;98947.72;7633240;32;37222;-79
2021/12/11 02:55:27;;;;;;;32.60;19.08;;;;;;;3.65;64.16;98941.16;7633128;32;39305;-79
2021/12/11 02:59:45;;;;;;;34.28;18.58;;;;;;;3.48;65.06;98940.38;7632884;32;40054;-79
2021/12/11 03:04:16;;;;;;;31.30;16.85;;;;;;;3.84;63.79;98938.19;7631855;32;37835;-79
2021/12/11 03:08:33;;;;;;;33.22;17.98;;;;;;;3.72;63.94;98938.31;7633123;32;37007;-79
2021/12/11 03:12:49;;;;;;;32.65;17.50;;;;;;;3.45;65.13;98946.25;7632964;32;40060;-78
2021/12/11 03:17:06;;;;;;;27.50;15.30;;;;;;;3.56;64.87;98937.25;7631627;32;40773;-79
2021/12/11 03:21:22;;;;;;;29.50;15.35;;;;;;;3.80;63.92;98940.59;7632915;32;37704;-79
2021/12/11 03:25:39;;;;;;;26.00;14.23;;;;;;;3.57;64.69;98950.50;7632554;32;37238;-79
2021/12/11 03:29:55;;;;;;;30.70;16.45;;;;;;;3.57;65.25;98949.69;7631622;32;39397;-79
2021/12/11 03:34:22;;;;;;;26.92;14.68;;;;;;;3.53;64.98;98954.72;7632312;32;40817;-78
2021/12/11 03:38:40;;;;;;;26.62;14.07;;;;;;;3.70;64.47;98945.81;7632476;32;38684;-78
2021/12/11 03:42:58;;;;;;;30.30;14.05;;;;;;;3.41;65.24;98945.91;7632656;32;37392;-78
2021/12/11 03:47:22;;;;;;;24.60;12.75;;;;;;;3.72;64.21;98949.09;7632604;32;40031;-79
2021/12/11 03:51:41;;;;;;;28.20;13.62;;;;;;;3.72;64.20;98957.97;7632652;32;39959;-78
2021/12/11 03:56:01;;;;;;;26.92;12.88;;;;;;;3.79;64.10;98960.50;7632360;32;38607;-78
2021/12/11 04:00:20;;;;;;;23.33;12.55;;;;;;;3.93;63.58;98963.66;7632674;32;37997;-78
2021/12/11 04:04:40;;;;;;;28.60;13.20;;;;;;;3.80;63.96;98969.44;7632469;32;38391;-78
2021/12/11 04:08:57;;;;;;;25.25;13.60;;;;;;;3.76;63.71;98978.00;7631254;32;40660;-78
2021/12/11 04:13:14;;;;;;;24.50;12.55;;;;;;;3.73;63.95;98969.59;7632212;32;37992;-78
2021/12/11 04:17:30;;;;;;;23.33;12.50;;;;;;;3.90;63.75;98988.47;7632146;32;37980;-78
2021/12/11 04:21:48;;;;;;;29.35;13.57;;;;;;;3.73;64.09;98997.38;7632106;32;40004;-79
2021/12/11 04:26:05;;;;;;;37.67;16.17;;;;;;;3.82;63.91;99005.03;7631905;32;40013;-79
2021/12/11 04:30:23;;;;;;;26.75;14.45;;;;;;;3.81;63.93;98998.00;7631983;32;38680;-78
2021/12/11 04:34:39;;;;;;;46.75;20.88;;;;;;;3.67;64.19;98987.56;7632085;32;38009;-79
2021/12/11 04:38:56;;;;;;;33.80;16.92;;;;;;;3.69;64.18;98992.69;7631933;32;40128;-79
2021/12/11 04:43:16;;;;;;;37.67;17.90;;;;;;;3.64;64.34;98981.84;7631977;32;39710;-79
2021/12/11 04:47:39;;;;;;;31.87;14.90;;;;;;;3.91;63.30;99003.56;7631883;32;38666;-79
2021/12/11 04:52:08;;;;;;;27.37;13.80;;;;;;;3.61;64.47;98998.53;7631910;32;37224;-79
2021/12/11 05:05:51;;;;;;;20.77;11.63;;;;;;;3.84;63.75;98992.94;7631486;32;38745;-79
2021/12/11 05:10:37;;;;;;;25.05;13.38;;;;;;;3.68;64.23;98999.97;7631521;32;37398;-78
2021/12/11 05:14:48;;;;;;;23.12;12.18;;;;;;;3.82;63.87;99013.13;7631354;32;39152;-77
2021/12/11 05:19:04;;;;;;;23.65;11.30;;;;;;;3.74;63.58;99019.75;7630809;32;39959;-78
2021/12/11 05:23:21;;;;;;;23.62;11.75;;;;;;;3.52;64.48;99017.00;7631138;32;38494;-78
2021/12/11 05:27:39;;;;;;;20.62;10.90;;;;;;;3.75;63.97;99007.91;7630974;32;37199;-78
2021/12/11 05:31:55;;;;;;;23.98;11.77;;;;;;;3.60;64.10;99007.66;7631202;32;38334;-78
2021/12/11 05:36:14;;;;;;;26.33;11.77;;;;;;;3.82;63.47;99011.25;7630843;32;40040;-78
2021/12/11 05:40:32;;;;;;;20.15;10.55;;;;;;;3.70;63.85;99019.41;7630820;32;36873;-78
2021/12/11 05:44:48;;;;;;;21.33;12.20;;;;;;;3.69;63.90;99036.69;7630709;32;37274;-78
2021/12/11 05:49:05;;;;;;;22.30;12.68;;;;;;;3.81;63.55;99042.00;7630520;32;40099;-78
2021/12/11 05:53:22;;;;;;;18.50;10.63;;;;;;;3.93;63.06;99055.34;7630449;32;40751;-79
2021/12/11 05:57:38;;;;;;;18.70;11.23;;;;;;;3.99;62.72;99049.00;7630307;32;37897;-79
2021/12/11 06:02:08;;;;;;;20.30;11.90;;;;;;;3.81;63.08;99057.31;7630308;32;37253;-78
2021/12/11 06:06:25;;;;;;;19.25;10.40;;;;;;;3.89;62.70;99065.81;7630277;32;39934;-79
2021/12/11 06:10:41;;;;;;;24.10;12.35;;;;;;;4.00;62.49;99077.59;7630025;32;39866;-79
2021/12/11 06:14:57;;;;;;;23.73;13.38;;;;;;;4.00;62.59;99072.22;7630102;32;37944;-79
2021/12/11 06:19:14;;;;;;;22.87;13.43;;;;;;;4.08;62.21;99073.66;7629766;32;38022;-79
2021/12/11 06:23:30;;;;;;;26.23;13.20;;;;;;;3.84;63.10;99084.63;7629749;32;40045;-79
2021/12/11 06:27:47;;;;;;;24.33;12.10;;;;;;;3.83;63.14;99095.66;7629460;32;40648;-79
2021/12/11 06:32:03;;;;;;;19.80;10.43;;;;;;;3.64;63.85;99114.75;7630687;32;37576;-78
2021/12/11 06:36:22;;;;;;;17.42;10.20;;;;;;;3.71;63.77;99118.13;7633502;32;37376;-79
2021/12/11 06:40:39;;;;;;;18.65;10.15;;;;;;;3.86;63.36;99132.91;7633462;32;39404;-78
2021/12/11 06:44:55;;;;;;;18.50;10.50;;;;;;;3.74;63.41;99150.00;7633355;32;39970;-79
2021/12/11 06:49:12;;;;;;;18.85;9.70;;;;;;;3.89;62.86;99152.12;7633320;32;38688;-81
2021/12/11 06:53:42;;;;;;;18.85;9.80;;;;;;;3.80;63.10;99169.75;7633325;32;37832;-81
2021/12/11 06:57:59;;;;;;;18.67;9.70;;;;;;;3.55;63.92;99179.03;7633255;32;39369;-82
2021/12/11 07:02:17;;;;;;;15.07;8.38;;;;;;;4.22;67.45;99171.28;7633176;32;39010;-79
2021/12/11 07:06:36;;;;;;;18.58;11.20;;;;;;;4.38;63.76;99189.34;7633152;32;37159;-81
2021/12/11 07:10:52;;;;;;;20.10;10.38;;;;;;;4.01;63.15;99195.22;7633226;32;36376;-82
2021/12/11 07:15:10;;;;;;;16.27;9.82;;;;;;;3.85;62.97;99204.91;7632928;32;39435;-80
2021/12/11 07:19:26;;;;;;;21.20;10.15;;;;;;;4.01;62.57;99222.19;7632796;32;40789;-83
2021/12/11 07:23:47;;;;;;;18.95;9.98;;;;;;;4.29;62.12;99225.91;7631639;32;37822;-81
2021/12/11 07:28:04;;;;;;;18.08;10.13;;;;;;;4.42;61.66;99222.87;7632743;32;37190;-80
2021/12/11 07:32:20;;;;;;;21.30;11.85;;;;;;;4.45;61.54;99240.44;7632792;32;39331;-80
2021/12/11 07:36:37;;;;;;;22.42;12.52;;;;;;;4.46;61.44;99236.69;7632791;32;39734;-81
2021/12/11 07:40:56;;;;;;;25.95;13.23;;;;;;;4.35;61.97;99248.38;7632498;32;37642;-82
2021/12/11 07:45:12;;;;;;;30.62;17.55;;;;;;;4.39;61.84;99263.03;7632491;32;37990;-81
2021/12/11 07:49:29;;;;;;;32.30;18.08;;;;;;;4.36;61.94;99271.63;7632655;32;39148;-82
2021/12/11 07:53:45;;;;;;;37.80;19.52;;;;;;;4.13;62.32;99279.59;7632458;32;39947;-82
2021/12/11 07:58:03;;;;;;;45.42;25.20;;;;;;;3.83;64.00;99276.31;7632166;32;38700;-80
2021/12/11 08:02:19;;;;;;;28.48;16.02;;;;;;;4.25;62.75;99284.13;7632508;32;37670;-81
2021/12/11 08:06:37;;;;;;;25.85;14.32;;;;;;;4.53;62.03;99306.72;7631205;32;40180;-82
2021/12/11 08:10:57;;;;;;;24.52;13.52;;;;;;;4.64;61.90;99313.94;7632242;32;39853;-81
2021/12/11 08:15:14;;;;;;;24.00;13.20;;;;;;;4.74;61.61;99319.50;7632350;32;38592;-80
2021/12/11 08:19:31;;;;;;;27.98;15.07;;;;;;;4.63;62.05;99323.09;7632268;32;37099;-81
2021/12/11 08:23:53;;;;;;;27.50;14.35;;;;;;;4.69;61.86;99317.56;7632295;32;39281;-81
2021/12/11 08:28:11;;;;;;;26.33;15.02;;;;;;;4.48;62.95;99335.28;7631992;32;39869;-79
2021/12/11 08:32:28;;;;;;;27.42;13.40;;;;;;;4.56;62.56;99347.56;7631849;32;36927;-81
2021/12/11 08:36:44;;;;;;;24.90;14.27;;;;;;;4.74;61.99;99341.09;7631944;32;37201;-81
2021/12/11 08:41:02;;;;;;;24.50;13.20;;;;;;;4.67;62.11;99341.28;7631754;32;39261;-82
2021/12/11 08:45:25;;;;;;;25.42;14.07;;;;;;;4.74;61.93;99335.69;7631798;32;39985;-81
2021/12/11 08:49:42;;;;;;;21.73;12.60;;;;;;;4.76;62.04;99343.56;7631932;32;37877;-81
2021/12/11 08:53:58;;;;;;;27.20;14.75;;;;;;;4.83;61.67;99336.94;7630968;32;37168;-80
2021/12/11 08:58:17;;;;;;;24.95;13.48;;;;;;;4.93;61.51;99340.88;7630432;32;39305;-78
2021/12/11 09:02:45;;;;;;;24.98;14.25;;;;;;;5.10;60.98;99338.97;7631663;32;39978;-78
2021/12/11 09:07:06;;;;;;;23.12;13.43;;;;;;;4.74;61.77;99346.50;7631488;32;37844;-81
2021/12/11 09:11:37;;;;;;;21.50;12.37;;;;;;;4.78;61.96;99349.56;7631369;32;37198;-81
2021/12/11 09:16:02;;;;;;;20.17;10.60;;;;;;;4.82;60.77;99353.41;7631582;32;40111;-81
2021/12/11 09:20:23;;;;;;;21.65;11.65;;;;;;;4.67;60.17;99356.66;7630347;32;39784;-82
2021/12/11 09:24:49;;;;;;;21.77;12.05;;;;;;;5.08;59.34;99360.84;7630948;32;38557;-81
2021/12/11 09:29:37;;;;;;;22.17;11.32;;;;;;;4.69;61.05;99358.06;7630766;32;37441;-79
2021/12/11 09:34:08;;;;;;;23.73;12.07;;;;;;;4.96;60.86;99364.69;7631038;32;39377;-81
2021/12/11 09:38:30;;;;;;;20.62;11.05;;;;;;;4.89;61.31;99365.66;7630729;32;39857;-82
2021/12/11 09:42:45;;;;;;;24.12;12.77;;;;;;;5.08;60.16;99368.13;7630717;32;37829;-79
2021/12/11 09:47:15;;;;;;;21.65;12.05;;;;;;;5.20;59.74;99376.16;7629452;32;37298;-79
2021/12/11 09:51:36;;;;;;;23.08;12.57;;;;;;;5.26;59.55;99373.28;7630619;32;39354;-80
2021/12/11 09:55:55;;;;;;;21.73;12.63;;;;;;;5.12;60.37;99371.97;7629328;32;39970;-79
2021/12/11 10:00:16;;;;;;;21.37;12.57;;;;;;;5.02;60.72;99369.13;7630347;32;37240;-80
2021/12/11 10:04:39;;;;;;;20.23;11.82;;;;;;;5.13;60.34;99397.13;7630289;32;37000;-79
2021/12/11 10:09:09;;;;;;;22.92;12.15;;;;;;;5.10;59.13;99400.31;7632989;32;40070;-80
2021/12/11 10:13:26;;;;;;;21.37;12.40;;;;;;;5.18;58.24;99395.31;7632711;32;40194;-80
2021/12/11 10:17:53;;;;;;;20.85;11.70;;;;;;;4.62;60.46;99405.16;7633478;32;37932;-79
2021/12/11 10:22:24;;;;;;;22.60;12.07;;;;;;;4.60;60.54;99418.09;7633745;32;37130;-80
2021/12/11 10:26:41;;;;;;;22.45;11.98;;;;;;;5.05;59.31;99419.97;7633430;32;40556;-80
2021/12/11 10:31:09;;;;;;;20.37;10.95;;;;;;;4.83;59.58;99415.28;7633428;32;39726;-79
2021/12/11 10:35:29;;;;;;;19.80;10.55;;;;;;;5.03;59.06;99424.78;7633543;32;38051;-79
2021/12/11 10:39:50;;;;;;;23.90;12.02;;;;;;;4.77;59.77;99418.12;7633365;32;37250;-78
2021/12/11 10:44:14;;;;;;;20.27;11.32;;;;;;;4.93;60.33;99413.81;7633383;32;40042;-78
2021/12/11 10:48:34;;;;;;;19.45;10.88;;;;;;;5.05;60.54;99411.84;7633301;32;40808;-79
2021/12/11 10:52:50;;;;;;;18.75;10.40;;;;;;;5.09;61.11;99404.91;7633091;32;38561;-80
2021/12/11 10:57:07;;;;;;;23.12;12.90;;;;;;;5.06;61.29;99402.69;7633248;32;37313;-79
2021/12/11 11:01:31;;;;;;;22.13;12.25;;;;;;;5.12;61.14;99396.28;7633121;32;39368;-79
2021/12/11 11:05:48;;;;;;;16.17;9.07;;;;;;;5.11;59.46;99389.28;7633066;32;40848;-79
2021/12/11 11:10:10;;;;;;;15.55;8.43;;;;;;;5.36;57.06;99385.31;7631869;32;38657;-79
2021/12/11 11:14:27;;;;;;;13.70;7.60;;;;;;;4.89;59.98;99386.47;7633024;32;36929;-80
2021/12/11 11:18:43;;;;;;;14.50;7.85;;;;;;;4.77;59.51;99386.53;7631304;32;40077;-79
2021/12/11 11:23:00;;;;;;;13.93;7.97;;;;;;;4.99;58.86;99385.84;7632880;32;40783;-79
2021/12/11 11:27:17;;;;;;;14.95;8.45;;;;;;;5.02;58.51;99369.94;7631465;32;38651;-79
2021/12/11 11:31:37;;;;;;;16.87;9.35;;;;;;;5.02;59.04;99379.94;7632855;32;37225;-80
2021/12/11 11:35:54;;;;;;;17.95;10.20;;;;;;;5.10;58.80;99366.00;7632740;32;39376;-79
2021/12/11 11:40:15;;;;;;;18.85;10.70;;;;;;;5.12;59.35;99382.78;7632581;32;40696;-79
2021/12/11 11:44:31;;;;;;;17.58;10.05;;;;;;;5.29;59.09;99384.69;7632643;32;38682;-80
2021/12/11 11:48:49;;;;;;;17.75;9.50;;;;;;;5.40;59.41;99376.47;7632536;32;37314;-80
2021/12/11 11:53:06;;;;;;;16.65;10.07;;;;;;;5.21;59.61;99383.22;7632612;32;40147;-80
2021/12/11 11:57:26;;;;;;;20.00;11.10;;;;;;;5.17;60.17;99382.88;7631318;32;40764;-79
2021/12/11 12:01:47;;;;;;;22.85;12.00;;;;;;;5.26;60.08;99376.00;7632410;32;37925;-79
2021/12/11 12:06:10;;;;;;;24.40;13.13;;;;;;;5.24;59.28;99370.03;7632550;32;38120;-79
2021/12/11 12:10:27;;;;;;;21.87;11.85;;;;;;;5.24;59.55;99378.13;7632502;32;39289;-79
2021/12/11 12:14:45;;;;;;;23.12;12.65;;;;;;;5.12;59.41;99390.87;7631208;32;40036;-79
2021/12/11 12:19:03;;;;;;;20.83;12.02;;;;;;;4.45;60.62;99405.94;7622384;32;318168;-79
2021/12/11 12:23:22;;;;;;;25.00;13.52;;;;;;;4.32;61.13;99403.53;7631111;32;39718;-79
2021/12/11 12:27:42;;;;;;;25.27;13.18;;;;;;;4.59;60.26;99405.63;7632062;32;40159;-79
2021/12/11 12:32:06;;;;;;;26.60;13.77;;;;;;;4.43;61.01;99410.78;7629900;32;39924;-79
2021/12/11 12:36:22;;;;;;;24.12;12.35;;;;;;;4.33;62.01;99419.47;7631955;32;38622;-79
2021/12/11 12:40:59;;;;;;;26.25;14.05;;;;;;;4.75;60.44;99418.38;7632073;32;37322;-80
2021/12/11 12:45:21;;;;;;;24.37;13.30;;;;;;;4.73;60.71;99427.78;7631984;32;40097;-79
2021/12/11 12:49:42;;;;;;;26.95;13.90;;;;;;;5.00;60.21;99436.09;7631861;32;40002;-79
2021/12/11 12:53:59;;;;;;;29.08;13.90;;;;;;;4.79;60.80;99432.22;7631796;32;38473;-79
2021/12/11 12:58:24;;;;;;;23.00;13.18;;;;;;;4.95;61.05;99438.69;7630482;32;38089;-77
2021/12/11 13:02:41;;;;;;;22.98;12.80;;;;;;;4.84;60.34;99435.00;7629930;32;39410;-78
2021/12/11 13:07:00;;;;;;;21.52;12.77;;;;;;;4.61;61.82;99433.25;7631491;32;40905;-80
2021/12/11 13:11:38;;;;;;;25.77;12.23;;;;;;;4.65;61.21;99420.88;7631497;32;37747;-80
2021/12/11 13:16:28;;;;;;;26.62;13.90;;;;;;;4.75;61.42;99426.47;7631420;32;37289;-78
2021/12/11 13:21:02;;;;;;;21.75;12.95;;;;;;;4.76;61.14;99433.53;7622300;32;40079;-78
2021/12/11 13:25:23;;;;;;;25.42;13.10;;;;;;;4.76;61.42;99430.81;7630658;32;39917;-77
2021/12/11 13:29:42;;;;;;;26.42;13.45;;;;;;;5.07;60.40;99431.34;7630685;32;38643;-79
2021/12/11 13:33:59;;;;;;;24.30;12.60;;;;;;;4.96;60.67;99426.84;7631130;32;37270;-78
2021/12/11 13:38:17;;;;;;;30.60;15.70;;;;;;;5.07;60.23;99428.63;7630831;32;39540;-78
2021/12/11 13:42:36;;;;;;;26.25;15.38;;;;;;;4.98;60.24;99430.09;7633042;32;38971;-78
2021/12/11 13:46:52;;;;;;;24.73;14.77;;;;;;;5.01;60.61;99440.44;7633900;32;36811;-78
2021/12/11 13:51:21;;;;;;;25.12;14.45;;;;;;;4.94;60.89;99447.88;7633988;32;38167;-79
2021/12/11 13:55:37;;;;;;;28.00;14.73;;;;;;;4.83;61.07;99454.97;7634036;32;39323;-79
2021/12/11 14:00:01;;;;;;;29.67;15.32;;;;;;;4.91;60.59;99456.47;7633818;32;39904;-79
2021/12/11 14:04:18;;;;;;;;;;;;;;;4.73;60.98;99461.00;7634254;32;37904;-78
2021/12/11 14:08:37;;;;;;;26.55;13.93;;;;;;;4.74;61.18;99454.53;7634105;32;37534;-78
2021/12/11 14:12:55;;;;;;;22.83;12.98;;;;;;;4.57;61.58;99462.59;7633815;32;40153;-78
2021/12/11 14:17:11;;;;;;;29.65;14.32;;;;;;;4.50;61.55;99461.91;7633691;32;40775;-78
2021/12/11 14:21:28;;;;;;;26.52;13.23;;;;;;;4.62;61.17;99464.56;7633453;32;38665;-78
2021/12/11 14:25:46;;;;;;;28.40;12.95;;;;;;;4.58;61.22;99474.22;7632429;32;38524;-78
2021/12/11 14:30:04;;;;;;;26.08;14.73;;;;;;;4.72;61.43;99478.25;7633449;32;39390;-77
2021/12/11 14:34:20;;;;;;;24.02;13.85;;;;;;;4.70;61.41;99480.38;7633508;32;39820;-78
2021/12/11 14:38:37;;;;;;;28.27;15.60;;;;;;;4.50;61.97;99489.72;7633302;32;38601;-78
2021/12/11 14:42:56;;;;;;;32.88;16.95;;;;;;;4.66;61.55;99495.44;7633406;32;37272;-79
2021/12/11 14:47:15;;;;;;;29.60;16.73;;;;;;;4.70;61.47;99497.41;7633402;32;39314;-78
2021/12/11 14:51:33;;;;;;;30.98;18.08;;;;;;;4.62;62.05;99500.50;7632919;32;40785;-78
2021/12/11 14:55:55;;;;;;;29.70;17.20;;;;;;;4.40;62.55;99512.97;7632971;32;37988;-76
2021/12/11 15:00:15;;;;;;;28.95;16.12;;;;;;;4.67;61.37;99513.25;7633218;32;37975;-76
2021/12/11 15:04:39;;;;;;;31.05;16.73;;;;;;;4.69;61.23;99517.38;7633221;32;39597;-77
2021/12/11 15:08:55;;;;;;;34.25;17.23;;;;;;;4.56;61.09;99536.53;7633098;32;40007;-77
2021/12/11 15:13:13;;;;;;;32.85;17.40;;;;;;;4.57;61.20;99546.31;7632974;32;37957;-78
2021/12/11 15:17:30;;;;;;;32.78;16.65;;;;;;;4.55;61.23;99547.59;7632946;32;37425;-78
2021/12/11 15:21:46;;;;;;;28.80;16.02;;;;;;;4.54;61.12;99546.75;7632815;32;39364;-77
2021/12/11 15:26:03;;;;;;;28.42;15.45;;;;;;;4.58;61.14;99552.50;7632774;32;41257;-77
2021/12/11 15:30:25;;;;;;;35.33;15.35;;;;;;;4.30;61.64;99562.19;7632869;32;37554;-77
2021/12/11 15:34:42;;;;;;;27.87;15.30;;;;;;;4.13;62.25;99560.19;7631301;32;38031;-78
2021/12/11 15:39:04;;;;;;;34.50;17.77;;;;;;;4.21;61.97;99571.66;7632665;32;39425;-79
2021/12/11 15:43:23;;;;;;;29.52;17.65;;;;;;;4.05;62.28;99573.19;7631546;32;40696;-78
2021/12/11 15:47:41;;;;;;;32.60;16.40;;;;;;;4.20;61.93;99567.34;7632635;32;36940;-78
2021/12/11 15:51:58;;;;;;;32.35;17.02;;;;;;;4.19;61.91;99565.69;7631535;32;37209;-77
2021/12/11 15:56:15;;;;;;;29.15;16.48;;;;;;;3.88;62.99;99555.03;7631318;32;39976;-76
2021/12/11 16:00:36;;;;;;;33.60;16.90;;;;;;;3.69;62.97;99566.94;7632393;32;41095;-77
2021/12/11 16:04:53;;;;;;;30.58;17.02;;;;;;;3.50;63.69;99566.19;7632365;32;38752;-78
2021/12/11 16:09:16;;;;;;;31.02;16.15;;;;;;;3.85;62.83;99566.28;7632445;32;37172;-78
2021/12/11 16:13:32;;;;;;;31.80;17.97;;;;;;;3.78;62.70;99559.34;7632464;32;39334;-77
2021/12/11 16:17:49;;;;;;;35.83;17.00;;;;;;;3.28;64.83;99572.13;7632301;32;39720;-78
2021/12/11 16:22:10;;;;;;;30.42;17.02;;;;;;;3.42;63.89;99580.03;7632236;32;37929;-77
2021/12/11 16:26:29;;;;;;;34.80;17.55;;;;;;;3.03;65.05;99574.13;7632168;32;37020;-78
2021/12/11 16:30:51;;;;;;;27.55;16.08;;;;;;;3.45;64.23;99582.25;7628458;32;38492;-77
2021/12/11 16:35:09;;;;;;;35.90;18.30;;;;;;;3.41;64.45;99592.66;7630435;32;39714;-78
2021/12/11 16:39:26;;;;;;;31.90;16.37;;;;;;;3.21;64.76;99592.97;7631257;32;37977;-78
2021/12/11 16:43:42;;;;;;;30.73;16.55;;;;;;;3.33;64.37;99601.91;7629846;32;37402;-76
2021/12/11 16:47:59;;;;;;;36.50;17.45;;;;;;;3.27;64.48;99600.13;7636913;32;39162;-78
2021/12/11 16:52:15;;;;;;;33.63;16.67;;;;;;;3.35;64.53;99605.19;7630849;32;39918;-78
2021/12/11 16:56:33;;;;;;;31.77;16.77;;;;;;;3.51;63.86;99608.28;7651583;32;37985;-79
2021/12/11 17:00:51;;;;;;;33.80;17.70;;;;;;;3.38;64.02;99615.53;7657428;32;37531;-79
2021/12/11 17:05:09;;;;;;;28.48;16.00;;;;;;;3.38;64.28;99615.53;7657617;32;38385;-78
2021/12/11 17:09:28;;;;;;;31.27;16.35;;;;;;;3.14;65.06;99616.44;7657132;32;40537;-79
2021/12/11 17:13:45;;;;;;;30.35;15.30;;;;;;;3.52;63.62;99626.13;7632937;32;37818;-77
2021/12/11 17:18:08;;;;;;;28.43;14.67;;;;;;;3.53;63.79;99641.22;7629451;32;37209;-78
2021/12/11 17:22:30;;;;;;;29.65;15.52;;;;;;;3.68;63.26;99641.63;7627476;32;40604;-78
2021/12/11 17:26:48;;;;;;;29.45;16.10;;;;;;;3.48;64.06;99641.91;7628982;32;39459;-78
2021/12/11 17:31:05;;;;;;;31.35;16.12;;;;;;;3.22;64.59;99653.84;7629721;32;37984;-78
2021/12/11 17:35:22;;;;;;;30.67;15.95;;;;;;;3.32;64.10;99656.84;7630254;32;37192;-77
2021/12/11 17:39:38;;;;;;;26.35;15.35;;;;;;;3.46;64.03;99656.66;7629670;32;40066;-78
2021/12/11 17:43:55;;;;;;;28.87;15.00;;;;;;;3.37;64.10;99670.44;7629066;32;39920;-79
2021/12/11 17:48:13;;;;;;;25.12;14.32;;;;;;;3.23;64.35;99670.88;7629449;32;38283;-78
2021/12/11 17:52:30;;;;;;;28.02;15.82;;;;;;;3.42;63.54;99679.75;7629100;32;37390;-78
2021/12/11 17:56:46;;;;;;;29.02;14.77;;;;;;;2.63;66.96;99678.53;7629486;32;39118;-77
2021/12/11 18:01:33;;;;;;;27.15;15.80;;;;;;;2.40;68.56;99668.44;7629088;32;40022;-78
2021/12/11 18:05:51;;;;;;;31.80;18.00;;;;;;;3.26;65.50;99652.38;7614733;32;38012;-78
2021/12/11 18:10:11;;;;;;;33.08;16.80;;;;;;;3.38;64.79;99661.34;7648709;32;38203;-78
2021/12/11 18:14:44;;;;;;;32.92;16.35;;;;;;;3.32;64.74;99662.22;7629226;32;39851;-78
2021/12/11 18:19:33;;;;;;;34.77;17.30;;;;;;;3.10;64.85;99671.84;7629702;32;39996;-78
2021/12/11 18:23:49;;;;;;;27.55;14.07;;;;;;;2.89;65.84;99692.78;7629083;32;37823;-79
2021/12/11 18:28:06;;;;;;;26.90;14.95;;;;;;;2.84;66.15;99698.00;7630223;32;38039;-78
2021/12/11 18:32:39;;;;;;;27.07;14.27;;;;;;;2.87;65.21;99699.44;7632249;32;39307;-78
2021/12/11 18:37:00;;;;;;;33.17;14.77;;;;;;;3.21;64.18;99706.13;7633411;32;40813;-78
2021/12/11 18:41:29;;;;;;;26.17;13.95;;;;;;;2.63;65.87;99735.06;7633278;32;38832;-79
2021/12/11 18:45:51;;;;;;;25.02;14.02;;;;;;;2.47;66.53;99743.72;7620870;32;37179;-78
2021/12/11 18:50:09;;;;;;;29.83;14.77;;;;;;;2.17;68.60;99749.72;7633276;32;39339;-79
2021/12/11 18:54:32;;;;;;;26.70;14.60;;;;;;;2.82;65.80;99727.03;7633245;32;40825;-78
2021/12/11 18:58:52;;;;;;;28.60;15.27;;;;;;;2.85;65.82;99721.22;7633140;32;37919;-78
2021/12/11 19:03:09;;;;;;;29.58;15.63;;;;;;;2.81;65.36;99733.47;7633134;32;37934;-79
2021/12/11 19:07:26;;;;;;;32.47;15.60;;;;;;;2.73;65.66;99747.22;7633100;32;39024;-77
2021/12/11 19:11:51;;;;;;;30.52;15.00;;;;;;;2.31;66.96;99745.09;7633065;32;40825;-77
2021/12/11 19:16:10;;;;;;;28.58;15.57;;;;;;;2.75;65.85;99745.94;7632924;32;36496;-77
2021/12/11 19:20:31;;;;;;;28.58;15.23;;;;;;;2.85;65.18;99745.44;7633006;32;36916;-78
2021/12/11 19:24:47;;;;;;;26.50;14.23;;;;;;;2.61;65.79;99744.44;7632795;32;40156;-77
2021/12/11 19:29:09;;;;;;;26.42;14.13;;;;;;;2.68;66.00;99742.50;7632530;32;40767;-77
2021/12/11 19:33:31;;;;;;;29.33;16.15;;;;;;;2.48;66.31;99748.03;7623222;32;37900;-77
2021/12/11 19:37:48;;;;;;;26.10;14.63;;;;;;;1.80;68.70;99760.31;7628836;32;38297;-77
2021/12/11 19:42:06;;;;;;;28.42;15.32;;;;;;;2.32;66.71;99768.25;7628727;32;39428;-78
2021/12/11 19:46:23;;;;;;;33.60;17.20;;;;;;;2.18;67.37;99782.84;7618108;32;39795;-77
2021/12/11 19:50:42;;;;;;;30.15;15.48;;;;;;;2.41;66.09;99790.31;7616751;32;37830;-78
2021/12/11 19:54:59;;;;;;;28.20;15.35;;;;;;;2.45;65.80;99786.19;7617559;32;37188;-78
2021/12/11 19:59:20;;;;;;;30.98;16.48;;;;;;;2.19;67.14;99790.69;7617310;32;39381;-79
2021/12/11 20:03:40;;;;;;;35.28;17.15;;;;;;;1.97;66.92;99808.22;7617355;32;39978;-79
2021/12/11 20:07:59;;;;;;;32.30;16.20;;;;;;;2.04;67.08;99815.19;7617143;32;37954;-79
2021/12/11 20:12:22;;;;;;;30.67;16.23;;;;;;;2.24;66.21;99808.84;7617152;32;36464;-76
2021/12/11 20:16:39;;;;;;;32.13;16.80;;;;;;;1.96;67.62;99814.62;7616997;32;39407;-77
2021/12/11 20:21:21;;;;;;;26.90;13.90;;;;;;;1.99;67.37;99817.69;7617120;32;40544;-77
2021/12/11 20:25:38;;;;;;;25.98;14.50;;;;;;;2.01;66.93;99817.47;7629962;32;38753;-78
2021/12/11 20:29:58;;;;;;;30.60;16.10;;;;;;;2.40;65.70;99818.28;7630035;32;37309;-78